sensor_id;sensor_type;location;lat;lon;timestamp;temperature;humidity
43227;DHT22;28839;52.404;9.808;2023-03-31T00:02:46;11.50;99.90
43227;DHT22;28839;52.404;9.808;2023-03-31T00:09:42;11.60;99.90
43227;DHT22;28839;52.404;9.808;2023-03-31T00:16:38;11.60;99.90
43227;DHT22;28839;52.404;9.808;2023-03-31T00:23:31;11.70;99.90
43227;DHT22;28839;52.404;9.808;2023-03-31T00:30:27;11.70;99.90
43227;DHT22;28839;52.404;9.808;2023-03-31T00:37:20;11.60;99.90
43227;DHT22;28839;52.404;9.808;2023-03-31T00:44:17;11.50;99.90
43227;DHT22;28839;52.404;9.808;2023-03-31T00:51:17;11.30;99.90
43227;DHT22;28839;52.404;9.808;2023-03-31T00:58:14;11.30;99.90
43227;DHT22;28839;52.404;9.808;2023-03-31T01:05:11;11.30;99.90
43227;DHT22;28839;52.404;9.808;2023-03-31T01:12:09;11.30;99.90
43227;DHT22;28839;52.404;9.808;2023-03-31T01:19:04;11.40;99.90
43227;DHT22;28839;52.404;9.808;2023-03-31T01:41:14;11.30;99.90
43227;DHT22;28839;52.404;9.808;2023-03-31T01:48:12;11.20;99.90
43227;DHT22;28839;52.404;9.808;2023-03-31T01:55:12;11.10;99.90
43227;DHT22;28839;52.404;9.808;2023-03-31T02:02:11;11.10;99.90
43227;DHT22;28839;52.404;9.808;2023-03-31T02:09:10;11.10;99.90
43227;DHT22;28839;52.404;9.808;2023-03-31T02:16:08;11.00;99.90
43227;DHT22;28839;52.404;9.808;2023-03-31T02:23:05;10.70;99.90
43227;DHT22;28839;52.404;9.808;2023-03-31T02:29:59;10.60;99.90
43227;DHT22;28839;52.404;9.808;2023-03-31T02:36:55;10.60;99.90
43227;DHT22;28839;52.404;9.808;2023-03-31T02:43:50;10.50;99.90
43227;DHT22;28839;52.404;9.808;2023-03-31T02:58:28;10.50;99.90
43227;DHT22;28839;52.404;9.808;2023-03-31T03:05:34;10.50;99.90
43227;DHT22;28839;52.404;9.808;2023-03-31T03:12:37;10.40;99.90
43227;DHT22;28839;52.404;9.808;2023-03-31T03:19:33;10.40;99.90
43227;DHT22;28839;52.404;9.808;2023-03-31T03:26:29;10.30;99.90
43227;DHT22;28839;52.404;9.808;2023-03-31T03:33:26;10.10;99.90
43227;DHT22;28839;52.404;9.808;2023-03-31T03:40:20;10.10;99.90
43227;DHT22;28839;52.404;9.808;2023-03-31T03:47:15;10.10;99.90
43227;DHT22;28839;52.404;9.808;2023-03-31T03:54:09;10.00;99.90
43227;DHT22;28839;52.404;9.808;2023-03-31T04:01:03;10.10;99.90
43227;DHT22;28839;52.404;9.808;2023-03-31T04:07:58;9.90;99.90
43227;DHT22;28839;52.404;9.808;2023-03-31T04:14:52;9.90;99.90
43227;DHT22;28839;52.404;9.808;2023-03-31T04:21:46;9.90;99.90
43227;DHT22;28839;52.404;9.808;2023-03-31T04:28:51;9.90;99.90
43227;DHT22;28839;52.404;9.808;2023-03-31T04:35:45;9.80;99.90
43227;DHT22;28839;52.404;9.808;2023-03-31T04:42:42;9.90;99.90
43227;DHT22;28839;52.404;9.808;2023-03-31T04:49:37;9.90;99.90
43227;DHT22;28839;52.404;9.808;2023-03-31T04:56:31;9.90;99.90
43227;DHT22;28839;52.404;9.808;2023-03-31T05:03:25;10.00;99.90
43227;DHT22;28839;52.404;9.808;2023-03-31T05:10:20;10.00;99.90
43227;DHT22;28839;52.404;9.808;2023-03-31T05:17:14;10.00;99.90
43227;DHT22;28839;52.404;9.808;2023-03-31T05:24:09;10.10;99.90
43227;DHT22;28839;52.404;9.808;2023-03-31T05:31:06;10.10;99.90
43227;DHT22;28839;52.404;9.808;2023-03-31T05:37:59;10.10;99.90
43227;DHT22;28839;52.404;9.808;2023-03-31T05:44:53;10.20;99.90
43227;DHT22;28839;52.404;9.808;2023-03-31T05:51:48;10.20;99.90
43227;DHT22;28839;52.404;9.808;2023-03-31T05:58:43;10.20;99.90
43227;DHT22;28839;52.404;9.808;2023-03-31T06:05:37;10.10;99.90
43227;DHT22;28839;52.404;9.808;2023-03-31T06:12:33;10.30;99.90
43227;DHT22;28839;52.404;9.808;2023-03-31T06:19:27;10.20;99.90
43227;DHT22;28839;52.404;9.808;2023-03-31T06:26:21;10.10;99.90
43227;DHT22;28839;52.404;9.808;2023-03-31T06:33:16;10.10;99.90
43227;DHT22;28839;52.404;9.808;2023-03-31T06:40:11;10.20;99.90
43227;DHT22;28839;52.404;9.808;2023-03-31T06:47:04;10.20;99.90
43227;DHT22;28839;52.404;9.808;2023-03-31T06:54:00;10.10;99.90
43227;DHT22;28839;52.404;9.808;2023-03-31T07:00:53;10.10;99.90
43227;DHT22;28839;52.404;9.808;2023-03-31T07:07:47;10.10;99.90
43227;DHT22;28839;52.404;9.808;2023-03-31T07:14:43;10.10;99.90
43227;DHT22;28839;52.404;9.808;2023-03-31T07:21:37;10.10;99.90
43227;DHT22;28839;52.404;9.808;2023-03-31T07:28:31;10.00;99.90
43227;DHT22;28839;52.404;9.808;2023-03-31T07:35:26;10.00;99.90
43227;DHT22;28839;52.404;9.808;2023-03-31T07:42:20;10.00;99.90
43227;DHT22;28839;52.404;9.808;2023-03-31T07:49:14;9.90;99.90
43227;DHT22;28839;52.404;9.808;2023-03-31T07:56:09;10.00;99.90
43227;DHT22;28839;52.404;9.808;2023-03-31T08:03:03;10.00;99.90
43227;DHT22;28839;52.404;9.808;2023-03-31T08:09:57;10.10;99.90
43227;DHT22;28839;52.404;9.808;2023-03-31T08:16:52;10.20;99.90
43227;DHT22;28839;52.404;9.808;2023-03-31T08:23:46;10.40;99.90
43227;DHT22;28839;52.404;9.808;2023-03-31T08:30:40;10.40;99.90
43227;DHT22;28839;52.404;9.808;2023-03-31T08:37:36;10.40;99.90
43227;DHT22;28839;52.404;9.808;2023-03-31T08:44:33;10.60;99.90
43227;DHT22;28839;52.404;9.808;2023-03-31T08:51:31;10.80;99.90
43227;DHT22;28839;52.404;9.808;2023-03-31T08:58:35;10.90;99.90
43227;DHT22;28839;52.404;9.808;2023-03-31T09:05:42;10.90;99.90
43227;DHT22;28839;52.404;9.808;2023-03-31T09:12:42;11.00;99.90
43227;DHT22;28839;52.404;9.808;2023-03-31T09:19:42;11.10;99.90
43227;DHT22;28839;52.404;9.808;2023-03-31T09:26:40;11.30;99.90
43227;DHT22;28839;52.404;9.808;2023-03-31T09:33:39;11.00;99.90
43227;DHT22;28839;52.404;9.808;2023-03-31T09:40:37;11.00;99.90
43227;DHT22;28839;52.404;9.808;2023-03-31T09:47:33;10.70;99.90
43227;DHT22;28839;52.404;9.808;2023-03-31T09:54:35;10.70;99.90
43227;DHT22;28839;52.404;9.808;2023-03-31T10:01:30;10.60;99.90
43227;DHT22;28839;52.404;9.808;2023-03-31T10:08:29;10.60;99.90
43227;DHT22;28839;52.404;9.808;2023-03-31T10:15:26;10.50;99.90
43227;DHT22;28839;52.404;9.808;2023-03-31T10:22:29;10.60;99.90
43227;DHT22;28839;52.404;9.808;2023-03-31T10:29:28;10.70;99.90
43227;DHT22;28839;52.404;9.808;2023-03-31T10:36:26;10.60;99.90
43227;DHT22;28839;52.404;9.808;2023-03-31T10:43:25;10.60;99.90
43227;DHT22;28839;52.404;9.808;2023-03-31T10:50:26;10.60;99.90
43227;DHT22;28839;52.404;9.808;2023-03-31T10:57:26;10.70;99.90
43227;DHT22;28839;52.404;9.808;2023-03-31T11:04:36;10.50;99.90
43227;DHT22;28839;52.404;9.808;2023-03-31T11:11:51;10.50;99.90
43227;DHT22;28839;52.404;9.808;2023-03-31T11:19:10;10.60;99.90
43227;DHT22;28839;52.404;9.808;2023-03-31T11:26:10;10.50;99.90
43227;DHT22;28839;52.404;9.808;2023-03-31T11:33:25;10.50;99.90
43227;DHT22;28839;52.404;9.808;2023-03-31T11:40:40;10.40;99.90
43227;DHT22;28839;52.404;9.808;2023-03-31T11:47:40;10.40;99.90
43227;DHT22;28839;52.404;9.808;2023-03-31T11:54:39;10.50;99.90
43227;DHT22;28839;52.404;9.808;2023-03-31T12:01:42;10.60;99.90
43227;DHT22;28839;52.404;9.808;2023-03-31T12:08:41;10.70;99.90
43227;DHT22;28839;52.404;9.808;2023-03-31T12:15:39;10.70;99.90
43227;DHT22;28839;52.404;9.808;2023-03-31T12:22:36;10.70;99.90
43227;DHT22;28839;52.404;9.808;2023-03-31T12:29:36;10.80;99.90
43227;DHT22;28839;52.404;9.808;2023-03-31T12:36:40;10.60;99.90
43227;DHT22;28839;52.404;9.808;2023-03-31T12:43:51;11.00;99.90
43227;DHT22;28839;52.404;9.808;2023-03-31T12:51:01;11.30;99.90
43227;DHT22;28839;52.404;9.808;2023-03-31T12:58:37;11.50;99.90
43227;DHT22;28839;52.404;9.808;2023-03-31T13:05:44;11.50;99.90
43227;DHT22;28839;52.404;9.808;2023-03-31T13:12:57;11.70;99.90
43227;DHT22;28839;52.404;9.808;2023-03-31T13:19:54;12.20;99.90
43227;DHT22;28839;52.404;9.808;2023-03-31T13:26:48;12.50;99.90
43227;DHT22;28839;52.404;9.808;2023-03-31T13:33:46;12.30;99.90
43227;DHT22;28839;52.404;9.808;2023-03-31T13:40:59;12.40;99.90
43227;DHT22;28839;52.404;9.808;2023-03-31T13:48:11;12.50;99.90
43227;DHT22;28839;52.404;9.808;2023-03-31T13:55:39;12.50;99.90
43227;DHT22;28839;52.404;9.808;2023-03-31T14:02:48;12.30;99.90
43227;DHT22;28839;52.404;9.808;2023-03-31T14:09:45;12.10;99.90
43227;DHT22;28839;52.404;9.808;2023-03-31T14:16:45;12.10;99.90
43227;DHT22;28839;52.404;9.808;2023-03-31T14:23:48;12.20;99.90
43227;DHT22;28839;52.404;9.808;2023-03-31T14:30:51;11.90;99.90
43227;DHT22;28839;52.404;9.808;2023-03-31T14:37:51;11.80;99.90
43227;DHT22;28839;52.404;9.808;2023-03-31T14:44:46;11.80;99.90
43227;DHT22;28839;52.404;9.808;2023-03-31T14:51:42;11.90;99.90
43227;DHT22;28839;52.404;9.808;2023-03-31T14:58:40;12.10;99.90
43227;DHT22;28839;52.404;9.808;2023-03-31T15:05:36;12.20;99.90
43227;DHT22;28839;52.404;9.808;2023-03-31T15:12:30;11.80;99.90
43227;DHT22;28839;52.404;9.808;2023-03-31T15:19:27;11.60;99.90
43227;DHT22;28839;52.404;9.808;2023-03-31T15:26:25;11.40;99.90
43227;DHT22;28839;52.404;9.808;2023-03-31T15:33:22;11.40;99.90
43227;DHT22;28839;52.404;9.808;2023-03-31T15:40:21;11.40;99.90
43227;DHT22;28839;52.404;9.808;2023-03-31T15:47:17;11.00;99.90
43227;DHT22;28839;52.404;9.808;2023-03-31T15:54:35;10.90;99.90
43227;DHT22;28839;52.404;9.808;2023-03-31T16:01:32;11.10;99.90
43227;DHT22;28839;52.404;9.808;2023-03-31T16:08:29;11.10;99.90
43227;DHT22;28839;52.404;9.808;2023-03-31T16:15:29;10.90;99.90
43227;DHT22;28839;52.404;9.808;2023-03-31T16:22:31;11.00;99.90
43227;DHT22;28839;52.404;9.808;2023-03-31T16:29:26;11.00;99.90
43227;DHT22;28839;52.404;9.808;2023-03-31T16:36:20;10.90;99.90
43227;DHT22;28839;52.404;9.808;2023-03-31T16:43:17;10.90;99.90
43227;DHT22;28839;52.404;9.808;2023-03-31T16:50:11;10.90;99.90
43227;DHT22;28839;52.404;9.808;2023-03-31T16:57:06;10.80;99.90
43227;DHT22;28839;52.404;9.808;2023-03-31T17:04:01;10.70;99.90
43227;DHT22;28839;52.404;9.808;2023-03-31T17:10:59;10.80;99.90
43227;DHT22;28839;52.404;9.808;2023-03-31T17:17:53;10.70;99.90
43227;DHT22;28839;52.404;9.808;2023-03-31T17:24:49;10.70;99.90
43227;DHT22;28839;52.404;9.808;2023-03-31T17:31:48;10.60;99.90
43227;DHT22;28839;52.404;9.808;2023-03-31T17:38:42;10.40;99.90
43227;DHT22;28839;52.404;9.808;2023-03-31T17:45:37;10.40;99.90
43227;DHT22;28839;52.404;9.808;2023-03-31T17:52:31;10.30;99.90
43227;DHT22;28839;52.404;9.808;2023-03-31T17:59:26;10.20;99.90
43227;DHT22;28839;52.404;9.808;2023-03-31T18:06:21;10.30;99.90
43227;DHT22;28839;52.404;9.808;2023-03-31T18:13:15;10.30;99.90
43227;DHT22;28839;52.404;9.808;2023-03-31T18:20:10;10.20;99.90
43227;DHT22;28839;52.404;9.808;2023-03-31T18:27:05;10.30;99.90
43227;DHT22;28839;52.404;9.808;2023-03-31T18:33:59;10.20;99.90
43227;DHT22;28839;52.404;9.808;2023-03-31T18:40:54;10.20;99.90
43227;DHT22;28839;52.404;9.808;2023-03-31T18:47:49;10.10;99.90
43227;DHT22;28839;52.404;9.808;2023-03-31T18:54:43;10.20;99.90
43227;DHT22;28839;52.404;9.808;2023-03-31T19:01:37;10.20;99.90
43227;DHT22;28839;52.404;9.808;2023-03-31T19:08:33;10.20;99.90
43227;DHT22;28839;52.404;9.808;2023-03-31T19:15:27;10.20;99.90
43227;DHT22;28839;52.404;9.808;2023-03-31T19:22:21;10.10;99.90
43227;DHT22;28839;52.404;9.808;2023-03-31T19:29:18;10.10;99.90
43227;DHT22;28839;52.404;9.808;2023-03-31T19:36:11;10.00;99.90
43227;DHT22;28839;52.404;9.808;2023-03-31T19:43:06;9.80;99.90
43227;DHT22;28839;52.404;9.808;2023-03-31T19:50:03;9.90;99.90
43227;DHT22;28839;52.404;9.808;2023-03-31T19:56:57;9.80;99.90
43227;DHT22;28839;52.404;9.808;2023-03-31T20:03:51;9.90;99.90
43227;DHT22;28839;52.404;9.808;2023-03-31T20:10:47;9.80;99.90
43227;DHT22;28839;52.404;9.808;2023-03-31T20:17:41;9.80;99.90
43227;DHT22;28839;52.404;9.808;2023-03-31T20:24:35;9.70;99.90
43227;DHT22;28839;52.404;9.808;2023-03-31T20:31:33;9.70;99.90
43227;DHT22;28839;52.404;9.808;2023-03-31T20:38:29;9.80;99.90
43227;DHT22;28839;52.404;9.808;2023-03-31T20:45:22;9.90;99.90
43227;DHT22;28839;52.404;9.808;2023-03-31T20:52:18;9.90;99.90
43227;DHT22;28839;52.404;9.808;2023-03-31T20:59:13;9.90;99.90
43227;DHT22;28839;52.404;9.808;2023-03-31T21:06:09;9.90;99.90
43227;DHT22;28839;52.404;9.808;2023-03-31T21:13:05;9.80;99.90
43227;DHT22;28839;52.404;9.808;2023-03-31T21:19:59;9.70;99.90
43227;DHT22;28839;52.404;9.808;2023-03-31T21:26:52;9.70;99.90
43227;DHT22;28839;52.404;9.808;2023-03-31T21:33:48;9.70;99.90
43227;DHT22;28839;52.404;9.808;2023-03-31T21:40:42;9.60;99.90
43227;DHT22;28839;52.404;9.808;2023-03-31T21:47:36;9.60;99.90
43227;DHT22;28839;52.404;9.808;2023-03-31T21:54:32;9.60;99.90
43227;DHT22;28839;52.404;9.808;2023-03-31T22:01:26;9.60;99.90
43227;DHT22;28839;52.404;9.808;2023-03-31T22:08:20;9.70;99.90
43227;DHT22;28839;52.404;9.808;2023-03-31T22:15:15;9.60;99.90
43227;DHT22;28839;52.404;9.808;2023-03-31T22:22:09;9.60;99.90
43227;DHT22;28839;52.404;9.808;2023-03-31T22:29:03;9.60;99.90
43227;DHT22;28839;52.404;9.808;2023-03-31T22:35:58;9.60;99.90
43227;DHT22;28839;52.404;9.808;2023-03-31T22:42:52;9.50;99.90
43227;DHT22;28839;52.404;9.808;2023-03-31T22:49:48;9.50;99.90
43227;DHT22;28839;52.404;9.808;2023-03-31T22:56:44;9.50;99.90
43227;DHT22;28839;52.404;9.808;2023-03-31T23:03:38;9.50;99.90
43227;DHT22;28839;52.404;9.808;2023-03-31T23:10:31;9.50;99.90
43227;DHT22;28839;52.404;9.808;2023-03-31T23:17:27;9.40;99.90
43227;DHT22;28839;52.404;9.808;2023-03-31T23:24:20;9.50;99.90
43227;DHT22;28839;52.404;9.808;2023-03-31T23:31:17;9.60;99.90
43227;DHT22;28839;52.404;9.808;2023-03-31T23:38:13;9.50;99.90
43227;DHT22;28839;52.404;9.808;2023-03-31T23:45:08;9.50;99.90
43227;DHT22;28839;52.404;9.808;2023-03-31T23:52:02;9.50;99.90
43227;DHT22;28839;52.404;9.808;2023-03-31T23:58:57;9.50;99.90
